Time;durP1;ratioP1;P1;durP2;ratioP2;P2;SDS_P1;SDS_P2;PMS_P1;PMS_P2;Temp;Humidity;BMP_temperature;BMP_pressure;BME280_temperature;BME280_humidity;BME280_pressure;Samples;Min_cycle;Max_cycle;Signal;HPM_P1;HPM_P2
2021/11/04 00:00:44;;;;;;;21.27;15.90;;;;;;;;;;5054051;28;20231;-83
2021/11/04 00:03:11;;;;;;;19.47;15.77;;;;;;;;;;5054912;28;20286;-82
2021/11/04 00:05:38;;;;;;;14.97;11.67;;;;;;;;;;5054199;28;20255;-83
2021/11/04 00:08:06;;;;;;;14.20;12.10;;;;;;;;;;5054176;28;20277;-83
2021/11/04 00:10:34;;;;;;;15.60;11.67;;;;;;;;;;5054285;28;20306;-83
2021/11/04 00:13:04;;;;;;;13.80;11.60;;;;;;;;;;5054719;28;20237;-83
2021/11/04 00:15:31;;;;;;;13.20;11.37;;;;;;;;;;5054379;28;20270;-83
2021/11/04 00:17:59;;;;;;;14.43;12.20;;;;;;;;;;5054926;28;20242;-82
2021/11/04 00:20:26;;;;;;;14.43;11.97;;;;;;;;;;5054074;28;20210;-83
2021/11/04 00:22:53;;;;;;;17.50;14.33;;;;;;;;;;5054210;28;20729;-83
2021/11/04 00:25:21;;;;;;;16.33;12.53;;;;;;;;;;5053045;28;20669;-83
2021/11/04 00:27:48;;;;;;;14.67;12.03;;;;;;;;;;5054642;28;20235;-83
2021/11/04 00:30:18;;;;;;;13.97;12.13;;;;;;;;;;5054137;28;20290;-83
2021/11/04 00:32:46;;;;;;;14.43;12.10;;;;;;;;;;5054793;28;20241;-83
2021/11/04 00:35:14;;;;;;;14.27;11.70;;;;;;;;;;5054553;28;20197;-83
2021/11/04 00:37:41;;;;;;;16.80;12.57;;;;;;;;;;5053917;28;20297;-82
2021/11/04 00:40:10;;;;;;;15.63;12.47;;;;;;;;;;5053921;28;20690;-82
2021/11/04 00:42:37;;;;;;;19.37;13.77;;;;;;;;;;5053817;28;20305;-83
2021/11/04 00:45:05;;;;;;;16.13;13.27;;;;;;;;;;5053592;28;20212;-82
2021/11/04 00:47:33;;;;;;;15.90;12.70;;;;;;;;;;5053604;28;20305;-82
2021/11/04 00:50:01;;;;;;;16.23;12.93;;;;;;;;;;5053885;28;20249;-82
2021/11/04 00:52:28;;;;;;;17.80;13.47;;;;;;;;;;5053619;28;20229;-82
2021/11/04 00:54:55;;;;;;;15.30;12.37;;;;;;;;;;5052850;28;20280;-82
2021/11/04 00:57:23;;;;;;;16.57;13.53;;;;;;;;;;5053753;28;20602;-82
2021/11/04 00:59:50;;;;;;;17.57;13.63;;;;;;;;;;5053789;28;20207;-82
2021/11/04 01:02:17;;;;;;;16.37;12.93;;;;;;;;;;5053174;28;20277;-82
2021/11/04 01:04:46;;;;;;;15.23;13.13;;;;;;;;;;5053411;28;20287;-82
2021/11/04 01:07:13;;;;;;;18.13;13.80;;;;;;;;;;5053036;28;20772;-82
2021/11/04 01:09:41;;;;;;;18.83;13.47;;;;;;;;;;5053045;28;20298;-82
2021/11/04 01:12:08;;;;;;;16.13;13.13;;;;;;;;;;5053111;28;20230;-83
2021/11/04 01:14:36;;;;;;;14.83;11.73;;;;;;;;;;5053439;28;20677;-82
2021/11/04 01:17:03;;;;;;;15.30;11.57;;;;;;;;;;5053228;28;20287;-83
2021/11/04 01:19:30;;;;;;;15.80;12.70;;;;;;;;;;5053510;28;20202;-82
2021/11/04 01:21:59;;;;;;;21.83;14.77;;;;;;;;;;5052934;28;20296;-82
2021/11/04 01:24:26;;;;;;;18.63;14.50;;;;;;;;;;5053070;28;20242;-82
2021/11/04 01:26:53;;;;;;;22.17;14.30;;;;;;;;;;5053232;28;20235;-83
2021/11/04 01:29:21;;;;;;;19.17;14.80;;;;;;;;;;5053475;28;20301;-81
2021/11/04 01:31:48;;;;;;;20.63;15.53;;;;;;;;;;5052649;28;20285;-82
2021/11/04 01:34:15;;;;;;;24.10;16.23;;;;;;;;;;5053052;28;20290;-82
2021/11/04 01:36:43;;;;;;;23.63;16.23;;;;;;;;;;5052633;28;20278;-82
2021/11/04 01:39:11;;;;;;;23.33;16.27;;;;;;;;;;5052893;28;22123;-83
2021/11/04 01:41:39;;;;;;;19.87;16.30;;;;;;;;;;5052990;28;20244;-83
2021/11/04 01:44:06;;;;;;;24.33;18.30;;;;;;;;;;5052928;28;20199;-83
2021/11/04 01:46:35;;;;;;;21.23;17.60;;;;;;;;;;5052724;28;20230;-83
2021/11/04 01:49:03;;;;;;;23.30;18.07;;;;;;;;;;5053328;28;20291;-83
2021/11/04 01:51:30;;;;;;;19.30;15.20;;;;;;;;;;5052245;28;20291;-83
2021/11/04 01:53:57;;;;;;;17.97;14.20;;;;;;;;;;5052552;28;20227;-83
2021/11/04 01:56:26;;;;;;;16.53;14.73;;;;;;;;;;5052564;28;20278;-83
2021/11/04 01:58:53;;;;;;;15.17;13.57;;;;;;;;;;5052709;28;20235;-83
2021/11/04 02:01:20;;;;;;;17.10;14.73;;;;;;;;;;5051548;28;20214;-84
2021/11/04 02:03:52;;;;;;;17.63;14.33;;;;;;;;;;5052490;28;20231;-83
2021/11/04 02:06:22;;;;;;;17.17;14.30;;;;;;;;;;5051246;28;20251;-83
2021/11/04 02:08:53;;;;;;;17.00;14.40;;;;;;;;;;5051991;28;20291;-82
2021/11/04 02:11:22;;;;;;;17.73;14.47;;;;;;;;;;5051737;28;20641;-83
2021/11/04 02:13:54;;;;;;;15.40;13.43;;;;;;;;;;5051558;28;20306;-83
2021/11/04 02:16:21;;;;;;;15.17;13.27;;;;;;;;;;5051518;28;20275;-83
2021/11/04 02:18:49;;;;;;;16.53;13.70;;;;;;;;;;5051682;28;20247;-82
2021/11/04 02:21:21;;;;;;;14.70;12.73;;;;;;;;;;5051731;28;20231;-82
2021/11/04 02:23:51;;;;;;;16.33;13.03;;;;;;;;;;5051767;28;20200;-82
2021/11/04 02:26:21;;;;;;;15.00;12.63;;;;;;;;;;5052012;28;20307;-82
2021/11/04 02:28:49;;;;;;;17.07;12.43;;;;;;;;;;5052068;28;20231;-83
2021/11/04 02:31:17;;;;;;;13.77;12.20;;;;;;;;;;5051789;28;20196;-83
2021/11/04 02:33:45;;;;;;;15.03;12.20;;;;;;;;;;5051571;28;20295;-83
2021/11/04 02:36:13;;;;;;;19.37;12.27;;;;;;;;;;5051242;28;20275;-83
2021/11/04 02:38:41;;;;;;;14.70;11.90;;;;;;;;;;5051356;28;20632;-82
2021/11/04 02:41:08;;;;;;;15.77;11.83;;;;;;;;;;5052007;28;20207;-82
2021/11/04 02:43:37;;;;;;;12.83;11.00;;;;;;;;;;5051129;28;20286;-84
2021/11/04 02:46:05;;;;;;;14.30;11.27;;;;;;;;;;5051502;28;20286;-83
2021/11/04 02:48:33;;;;;;;14.03;10.77;;;;;;;;;;5051727;28;20240;-83
2021/11/04 02:51:01;;;;;;;12.57;10.07;;;;;;;;;;5051265;28;20238;-84
2021/11/04 02:53:29;;;;;;;13.80;10.73;;;;;;;;;;5050911;28;20203;-84
2021/11/04 02:55:57;;;;;;;14.70;10.50;;;;;;;;;;5051397;28;20210;-82
2021/11/04 02:58:25;;;;;;;13.50;10.57;;;;;;;;;;5051108;28;20725;-83
2021/11/04 03:00:55;;;;;;;13.33;10.03;;;;;;;;;;5051789;28;20228;-83
2021/11/04 03:03:22;;;;;;;12.50;10.10;;;;;;;;;;5051821;28;20282;-83
2021/11/04 03:05:49;;;;;;;11.93;9.90;;;;;;;;;;5051166;28;20297;-82
2021/11/04 03:08:17;;;;;;;14.10;10.43;;;;;;;;;;5033689;28;20750;-83
2021/11/04 03:10:44;;;;;;;13.57;10.53;;;;;;;;;;5050987;28;20238;-83
2021/11/04 03:13:12;;;;;;;14.37;10.33;;;;;;;;;;5056585;28;20231;-83
2021/11/04 03:15:40;;;;;;;14.00;10.97;;;;;;;;;;5058133;28;20330;-83
2021/11/04 03:18:09;;;;;;;13.17;10.93;;;;;;;;;;5057443;28;20198;-83
2021/11/04 03:20:37;;;;;;;13.60;10.57;;;;;;;;;;5058211;28;20235;-82
2021/11/04 03:23:04;;;;;;;14.33;10.87;;;;;;;;;;5057284;28;20767;-83
2021/11/04 03:25:32;;;;;;;15.00;10.67;;;;;;;;;;5058425;28;20206;-82
2021/11/04 03:28:01;;;;;;;13.77;10.13;;;;;;;;;;5058146;28;20322;-82
2021/11/04 03:30:30;;;;;;;13.47;10.43;;;;;;;;;;5058276;28;20289;-82
2021/11/04 03:33:00;;;;;;;15.70;10.53;;;;;;;;;;5056963;28;20298;-83
2021/11/04 03:35:29;;;;;;;13.73;10.60;;;;;;;;;;5057148;28;20202;-82
2021/11/04 03:37:57;;;;;;;13.33;10.70;;;;;;;;;;5058262;28;20307;-83
2021/11/04 03:40:26;;;;;;;15.03;10.87;;;;;;;;;;5057202;28;20223;-83
2021/11/04 03:42:54;;;;;;;13.13;10.33;;;;;;;;;;5057696;28;20291;-83
2021/11/04 03:45:22;;;;;;;12.90;10.43;;;;;;;;;;5057755;28;20291;-82
2021/11/04 03:47:50;;;;;;;15.37;11.03;;;;;;;;;;5057464;28;20322;-83
2021/11/04 03:50:18;;;;;;;14.33;10.47;;;;;;;;;;5058223;28;20234;-83
2021/11/04 03:52:47;;;;;;;13.23;10.37;;;;;;;;;;5058168;28;20283;-82
2021/11/04 03:55:17;;;;;;;14.13;11.20;;;;;;;;;;5057734;28;20264;-82
2021/11/04 03:57:44;;;;;;;12.53;10.40;;;;;;;;;;5056691;28;20206;-83
2021/11/04 04:00:13;;;;;;;15.03;10.47;;;;;;;;;;5057670;28;20227;-82
2021/11/04 04:02:40;;;;;;;12.90;10.90;;;;;;;;;;5056559;28;20199;-83
2021/11/04 04:05:07;;;;;;;15.30;10.90;;;;;;;;;;5058067;28;20241;-83
2021/11/04 04:07:35;;;;;;;15.17;10.73;;;;;;;;;;5057293;28;20768;-83
2021/11/04 04:10:04;;;;;;;14.93;9.97;;;;;;;;;;5057524;28;20210;-83
2021/11/04 04:12:31;;;;;;;14.60;9.93;;;;;;;;;;5057487;28;20683;-83
2021/11/04 04:14:59;;;;;;;11.73;9.77;;;;;;;;;;5057048;28;20715;-83
2021/11/04 04:17:26;;;;;;;14.17;10.03;;;;;;;;;;5057413;28;20231;-82
2021/11/04 04:19:53;;;;;;;13.17;9.87;;;;;;;;;;5057109;28;20291;-81
2021/11/04 04:22:21;;;;;;;14.17;9.40;;;;;;;;;;5057583;28;20217;-81
2021/11/04 04:24:48;;;;;;;13.10;9.90;;;;;;;;;;5053770;28;20228;-83
2021/11/04 04:27:17;;;;;;;13.30;9.33;;;;;;;;;;5054278;28;20254;-84
2021/11/04 04:29:45;;;;;;;11.33;9.53;;;;;;;;;;5054034;28;20287;-84
2021/11/04 04:32:12;;;;;;;11.60;8.87;;;;;;;;;;5053429;28;20255;-82
2021/11/04 04:34:40;;;;;;;11.77;9.03;;;;;;;;;;5053378;28;20220;-83
2021/11/04 04:37:07;;;;;;;11.83;9.13;;;;;;;;;;5053833;28;20308;-83
2021/11/04 04:39:34;;;;;;;11.43;8.50;;;;;;;;;;5054141;28;20290;-83
2021/11/04 04:42:02;;;;;;;10.97;8.70;;;;;;;;;;5050789;28;20271;-83
2021/11/04 04:44:30;;;;;;;11.07;8.37;;;;;;;;;;5037991;28;20283;-83
2021/11/04 04:46:58;;;;;;;12.63;8.60;;;;;;;;;;5053259;28;20230;-82
2021/11/04 04:49:25;;;;;;;13.03;8.60;;;;;;;;;;5053587;28;20283;-82
2021/11/04 04:51:52;;;;;;;11.50;8.17;;;;;;;;;;5053133;28;20291;-82
2021/11/04 04:54:20;;;;;;;11.33;8.50;;;;;;;;;;5053682;28;20674;-82
2021/11/04 04:56:47;;;;;;;10.97;8.17;;;;;;;;;;5053689;28;20239;-82
2021/11/04 04:59:15;;;;;;;10.47;7.80;;;;;;;;;;5053356;28;20199;-82
2021/11/04 05:01:44;;;;;;;10.03;8.20;;;;;;;;;;5053616;28;20227;-82
2021/11/04 05:04:11;;;;;;;9.50;8.03;;;;;;;;;;5052859;28;20282;-82
2021/11/04 05:06:38;;;;;;;10.80;7.53;;;;;;;;;;5053022;28;20630;-83
2021/11/04 05:09:06;;;;;;;9.83;7.77;;;;;;;;;;5053639;28;20290;-83
2021/11/04 05:11:33;;;;;;;11.53;8.20;;;;;;;;;;5054131;28;20235;-83
2021/11/04 05:14:01;;;;;;;10.87;8.30;;;;;;;;;;5052381;28;20654;-83
2021/11/04 05:16:28;;;;;;;9.83;7.70;;;;;;;;;;5053084;28;20287;-83
2021/11/04 05:18:57;;;;;;;10.23;8.00;;;;;;;;;;5053345;28;20294;-83
2021/11/04 05:21:24;;;;;;;11.77;7.87;;;;;;;;;;5052771;28;20287;-82
2021/11/04 05:23:51;;;;;;;10.87;8.03;;;;;;;;;;5053534;28;20230;-82
2021/11/04 05:26:18;;;;;;;12.37;8.87;;;;;;;;;;5053378;28;20235;-82
2021/11/04 05:28:45;;;;;;;11.37;8.57;;;;;;;;;;5052377;28;20306;-83
2021/11/04 05:31:13;;;;;;;11.97;8.60;;;;;;;;;;5053057;28;20294;-83
2021/11/04 05:33:40;;;;;;;10.63;8.63;;;;;;;;;;5052783;28;20741;-83
2021/11/04 05:36:09;;;;;;;13.90;9.50;;;;;;;;;;5051897;28;20697;-83
2021/11/04 05:38:36;;;;;;;13.37;8.57;;;;;;;;;;5053167;28;20224;-83
2021/11/04 05:41:03;;;;;;;11.87;8.40;;;;;;;;;;5053468;28;20232;-83
2021/11/04 05:43:31;;;;;;;11.57;8.50;;;;;;;;;;5042300;28;20244;-83
2021/11/04 05:46:00;;;;;;;11.57;8.93;;;;;;;;;;5053096;28;20235;-83
2021/11/04 05:48:28;;;;;;;11.20;8.10;;;;;;;;;;5051704;28;20298;-82
2021/11/04 05:50:55;;;;;;;11.70;8.03;;;;;;;;;;5034788;28;20199;-83
2021/11/04 05:53:24;;;;;;;10.83;8.07;;;;;;;;;;5051974;28;20286;-83
2021/11/04 05:55:51;;;;;;;11.03;8.50;;;;;;;;;;5052551;28;20238;-83
2021/11/04 05:58:19;;;;;;;12.93;7.60;;;;;;;;;;5052038;28;20227;-83
2021/11/04 06:00:46;;;;;;;11.33;8.00;;;;;;;;;;5051597;28;20645;-84
2021/11/04 06:03:14;;;;;;;13.77;7.70;;;;;;;;;;5052975;28;20287;-82
2021/11/04 06:05:41;;;;;;;9.80;7.60;;;;;;;;;;5052016;28;20231;-83
2021/11/04 06:08:09;;;;;;;13.07;7.90;;;;;;;;;;5052375;28;20263;-83
2021/11/04 06:10:38;;;;;;;12.87;7.87;;;;;;;;;;5051923;28;20691;-83
2021/11/04 06:13:05;;;;;;;11.03;8.10;;;;;;;;;;5052253;28;20276;-83
2021/11/04 06:15:33;;;;;;;14.10;7.97;;;;;;;;;;5052165;28;20324;-84
2021/11/04 06:18:00;;;;;;;10.50;7.50;;;;;;;;;;5051923;28;20279;-84
2021/11/04 06:20:29;;;;;;;11.03;7.23;;;;;;;;;;5034477;28;20291;-84
2021/11/04 06:22:56;;;;;;;12.97;7.33;;;;;;;;;;5051577;28;20211;-83
2021/11/04 06:25:24;;;;;;;11.63;8.13;;;;;;;;;;5052399;28;20227;-84
2021/11/04 06:27:52;;;;;;;12.33;8.10;;;;;;;;;;5051723;28;20313;-84
2021/11/04 06:30:20;;;;;;;12.80;7.50;;;;;;;;;;5051962;28;20227;-84
2021/11/04 06:32:47;;;;;;;12.00;7.87;;;;;;;;;;5050901;28;20243;-82
2021/11/04 06:35:16;;;;;;;15.17;7.80;;;;;;;;;;5051442;28;20232;-82
2021/11/04 06:37:43;;;;;;;13.33;8.17;;;;;;;;;;5050833;28;20196;-83
2021/11/04 06:40:11;;;;;;;11.57;7.60;;;;;;;;;;5050627;28;20290;-84
2021/11/04 06:42:39;;;;;;;12.00;7.60;;;;;;;;;;5050986;28;20230;-84
2021/11/04 06:45:08;;;;;;;13.03;7.73;;;;;;;;;;5045967;28;20235;-85
2021/11/04 06:47:39;;;;;;;13.30;8.30;;;;;;;;;;5045465;28;20668;-84
2021/11/04 06:50:07;;;;;;;10.00;7.10;;;;;;;;;;5048009;28;20702;-83
2021/11/04 06:52:36;;;;;;;14.83;7.70;;;;;;;;;;5050416;28;20204;-83
2021/11/04 06:55:04;;;;;;;13.50;8.20;;;;;;;;;;5050950;28;20227;-84
2021/11/04 06:57:33;;;;;;;12.73;7.70;;;;;;;;;;5047881;28;20279;-84
2021/11/04 07:00:03;;;;;;;12.37;7.93;;;;;;;;;;5051361;28;20243;-83
2021/11/04 07:02:44;;;;;;;16.90;8.27;;;;;;;;;;5050840;28;20318;-83
2021/11/04 07:05:13;;;;;;;12.20;8.23;;;;;;;;;;5050722;28;20200;-83
2021/11/04 07:07:46;;;;;;;12.33;8.07;;;;;;;;;;5049271;28;20320;-83
2021/11/04 07:10:14;;;;;;;13.67;8.60;;;;;;;;;;5049911;28;20291;-82
2021/11/04 07:12:44;;;;;;;13.27;8.90;;;;;;;;;;5045725;28;20239;-83
2021/11/04 07:15:12;;;;;;;13.70;8.50;;;;;;;;;;5050728;28;20345;-84
2021/11/04 07:17:42;;;;;;;13.07;8.57;;;;;;;;;;5047245;28;20240;-85
2021/11/04 07:20:10;;;;;;;14.07;8.37;;;;;;;;;;5050494;28;20230;-84
2021/11/04 07:22:39;;;;;;;11.70;8.40;;;;;;;;;;5048866;28;20243;-83
2021/11/04 07:25:08;;;;;;;16.57;9.60;;;;;;;;;;5047216;28;20258;-83
2021/11/04 07:27:40;;;;;;;14.83;8.87;;;;;;;;;;5049847;28;20666;-84
2021/11/04 07:30:09;;;;;;;12.43;8.23;;;;;;;;;;5049000;28;20237;-83
2021/11/04 07:32:37;;;;;;;14.70;8.30;;;;;;;;;;5050245;28;20205;-82
2021/11/04 07:35:07;;;;;;;12.60;8.40;;;;;;;;;;5049118;28;20231;-84
2021/11/04 07:37:34;;;;;;;9.50;7.53;;;;;;;;;;5048742;28;20286;-84
2021/11/04 07:40:02;;;;;;;11.20;7.20;;;;;;;;;;5049353;28;20283;-84
2021/11/04 07:42:29;;;;;;;10.10;6.60;;;;;;;;;;5050272;28;20223;-84
2021/11/04 07:44:57;;;;;;;8.17;6.23;;;;;;;;;;5047821;28;20220;-85
2021/11/04 07:47:24;;;;;;;7.83;5.37;;;;;;;;;;5050059;28;20556;-84
2021/11/04 07:49:52;;;;;;;6.90;5.80;;;;;;;;;;5050867;28;20200;-84
2021/11/04 07:52:21;;;;;;;9.20;5.43;;;;;;;;;;5049305;28;20199;-85
2021/11/04 07:54:48;;;;;;;7.67;5.80;;;;;;;;;;5046337;28;20282;-85
2021/11/04 07:57:17;;;;;;;8.43;6.07;;;;;;;;;;5049587;28;20223;-86
2021/11/04 07:59:44;;;;;;;8.77;5.83;;;;;;;;;;5050982;28;20964;-87
2021/11/04 08:02:12;;;;;;;7.80;5.47;;;;;;;;;;5052634;28;20198;-86
2021/11/04 08:04:39;;;;;;;8.90;6.00;;;;;;;;;;5053461;28;21043;-86
2021/11/04 08:07:06;;;;;;;8.10;5.53;;;;;;;;;;5053454;28;20227;-87
2021/11/04 08:09:36;;;;;;;6.17;4.73;;;;;;;;;;5050941;28;20227;-87
2021/11/04 08:12:03;;;;;;;5.73;4.30;;;;;;;;;;5052176;28;20203;-87
2021/11/04 08:14:31;;;;;;;5.50;4.50;;;;;;;;;;5051738;28;20231;-86
2021/11/04 08:16:58;;;;;;;8.80;4.43;;;;;;;;;;5052343;28;20663;-88
2021/11/04 08:19:25;;;;;;;5.67;3.97;;;;;;;;;;5052687;28;20253;-88
2021/11/04 08:21:53;;;;;;;5.63;4.00;;;;;;;;;;5053057;28;20258;-89
2021/11/04 08:24:20;;;;;;;5.53;3.70;;;;;;;;;;5053059;28;20890;-90
2021/11/04 08:26:49;;;;;;;6.03;3.90;;;;;;;;;;5050170;28;20200;-90
2021/11/04 08:29:16;;;;;;;4.03;3.50;;;;;;;;;;5052945;28;20254;-90
2021/11/04 08:31:44;;;;;;;7.53;3.65;;;;;;;;;;5052116;28;20257;-90
2021/11/04 08:34:11;;;;;;;6.53;4.05;;;;;;;;;;5053482;28;20242;-90
2021/11/04 08:36:38;;;;;;;5.63;3.60;;;;;;;;;;5052792;28;20203;-90
2021/11/04 08:39:06;;;;;;;4.68;3.58;;;;;;;;;;5051990;28;20253;-89
2021/11/04 08:41:33;;;;;;;4.75;3.22;;;;;;;;;;5052664;28;20679;-88
2021/11/04 08:44:02;;;;;;;4.88;3.35;;;;;;;;;;5051334;28;20195;-86
2021/11/04 08:46:30;;;;;;;5.10;3.75;;;;;;;;;;5052609;28;20192;-86
2021/11/04 08:48:57;;;;;;;6.30;3.58;;;;;;;;;;5049481;28;20255;-85
2021/11/04 08:51:24;;;;;;;4.47;3.13;;;;;;;;;;5052589;28;20202;-86
2021/11/04 08:53:52;;;;;;;3.85;2.80;;;;;;;;;;5050040;28;20203;-80
2021/11/04 08:56:19;;;;;;;5.03;3.30;;;;;;;;;;5046670;28;20633;-76
2021/11/04 08:58:46;;;;;;;4.95;3.20;;;;;;;;;;5043903;28;20206;-76
2021/11/04 09:01:16;;;;;;;4.43;2.90;;;;;;;;;;5050454;28;20203;-76
2021/11/04 09:03:43;;;;;;;3.45;2.88;;;;;;;;;;5050687;28;20759;-76
2021/11/04 09:06:10;;;;;;;6.90;3.30;;;;;;;;;;5050789;28;20619;-76
2021/11/04 09:08:37;;;;;;;7.00;3.03;;;;;;;;;;5051311;28;20314;-76
2021/11/04 09:11:05;;;;;;;3.53;2.90;;;;;;;;;;5050301;28;20334;-75
2021/11/04 09:13:33;;;;;;;4.22;2.80;;;;;;;;;;5052226;28;20295;-75
2021/11/04 09:16:00;;;;;;;6.35;3.35;;;;;;;;;;5051166;28;20630;-75
2021/11/04 09:18:28;;;;;;;4.15;2.97;;;;;;;;;;5051482;28;20223;-76
2021/11/04 09:20:56;;;;;;;5.28;2.90;;;;;;;;;;5051162;28;20933;-76
2021/11/04 09:23:23;;;;;;;4.97;3.30;;;;;;;;;;5051394;28;20652;-76
2021/11/04 09:25:50;;;;;;;6.72;3.15;;;;;;;;;;5051113;28;20203;-76
2021/11/04 09:28:17;;;;;;;4.80;3.05;;;;;;;;;;5050647;28;20223;-76
2021/11/04 09:30:45;;;;;;;5.43;3.00;;;;;;;;;;5051320;28;20196;-76
2021/11/04 09:33:14;;;;;;;4.22;2.47;;;;;;;;;;5051895;28;20231;-76
2021/11/04 09:35:42;;;;;;;4.20;2.70;;;;;;;;;;5050962;28;20204;-76
2021/11/04 09:38:10;;;;;;;2.75;2.25;;;;;;;;;;5051383;28;20239;-76
2021/11/04 09:40:37;;;;;;;3.00;2.22;;;;;;;;;;5049682;28;20331;-75
2021/11/04 09:43:04;;;;;;;7.25;2.92;;;;;;;;;;5042108;28;20291;-75
2021/11/04 09:45:35;;;;;;;7.60;2.83;;;;;;;;;;5045559;28;20625;-82
2021/11/04 09:48:04;;;;;;;4.60;2.30;;;;;;;;;;5041985;28;20286;-83
2021/11/04 09:50:31;;;;;;;3.58;2.30;;;;;;;;;;5050669;28;20192;-81
2021/11/04 09:53:00;;;;;;;4.57;2.50;;;;;;;;;;5049357;28;20219;-82
2021/11/04 09:55:28;;;;;;;5.35;2.67;;;;;;;;;;5047520;28;20227;-81
2021/11/04 09:57:57;;;;;;;4.43;2.67;;;;;;;;;;5049516;28;20741;-81
2021/11/04 10:00:33;;;;;;;4.50;3.20;;;;;;;;;;5048809;28;20875;-81
2021/11/04 10:03:04;;;;;;;2.87;2.43;;;;;;;;;;5048038;28;20292;-82
2021/11/04 10:05:31;;;;;;;5.03;2.43;;;;;;;;;;5049556;28;20231;-82
2021/11/04 10:08:00;;;;;;;9.03;3.20;;;;;;;;;;5050213;28;20278;-81
2021/11/04 10:10:27;;;;;;;5.57;2.50;;;;;;;;;;5046867;28;20254;-82
2021/11/04 10:12:59;;;;;;;4.17;2.40;;;;;;;;;;5048747;28;20315;-82
2021/11/04 10:15:26;;;;;;;3.93;2.10;;;;;;;;;;5049471;28;20239;-83
2021/11/04 10:17:54;;;;;;;5.20;1.97;;;;;;;;;;5050266;28;20299;-82
2021/11/04 10:20:22;;;;;;;3.17;1.70;;;;;;;;;;5048126;28;20199;-82
2021/11/04 10:23:01;;;;;;;4.35;1.50;;;;;;;;;;5048930;28;20610;-82
2021/11/04 10:25:29;;;;;;;4.35;2.10;;;;;;;;;;5050108;28;20199;-82
2021/11/04 10:27:56;;;;;;;5.75;2.63;;;;;;;;;;5048752;28;20278;-81
2021/11/04 10:30:35;;;;;;;4.72;2.50;;;;;;;;;;5048864;28;20781;-82
2021/11/04 10:33:18;;;;;;;2.63;1.95;;;;;;;;;;5048414;28;20631;-81
2021/11/04 10:35:50;;;;;;;2.40;0.82;;;;;;;;;;5046508;28;20230;-81
2021/11/04 10:38:19;;;;;;;3.45;1.40;;;;;;;;;;5046541;28;20219;-81
2021/11/04 10:40:46;;;;;;;2.53;0.90;;;;;;;;;;5049342;28;20287;-81
2021/11/04 10:43:13;;;;;;;2.15;0.93;;;;;;;;;;5049724;28;20295;-81
2021/11/04 10:45:40;;;;;;;4.00;1.40;;;;;;;;;;5047980;28;20650;-80
2021/11/04 10:48:16;;;;;;;3.75;1.15;;;;;;;;;;5047407;28;20247;-81
2021/11/04 10:50:44;;;;;;;3.47;1.15;;;;;;;;;;5046491;28;20682;-80
2021/11/04 10:53:12;;;;;;;3.50;1.27;;;;;;;;;;5048157;28;20223;-80
2021/11/04 10:55:45;;;;;;;3.75;0.95;;;;;;;;;;5048411;28;20636;-81
2021/11/04 10:58:27;;;;;;;3.37;1.20;;;;;;;;;;5047826;28;20231;-80
2021/11/04 11:00:54;;;;;;;2.17;1.10;;;13.70;99.90;;;;;;5049403;28;20741;-80
2021/11/04 11:03:23;;;;;;;5.43;1.50;;;13.60;99.90;;;;;;5046187;28;20632;-80
2021/11/04 11:05:55;;;;;;;2.00;1.30;;;13.90;99.90;;;;;;5044910;28;20733;-83
2021/11/04 11:08:22;;;;;;;2.43;1.20;;;13.30;99.90;;;;;;5027170;28;20723;-84
2021/11/04 11:10:51;;;;;;;2.50;1.40;;;12.80;99.90;;;;;;5049431;28;20728;-87
2021/11/04 11:13:18;;;;;;;3.90;1.30;;;12.60;99.90;;;;;;5048807;28;20231;-85
2021/11/04 11:15:50;;;;;;;3.17;1.23;;;12.30;99.90;;;;;;5048691;28;20255;-87
2021/11/04 11:18:19;;;;;;;1.73;0.93;;;13.30;99.90;;;;;;5046652;28;20737;-86
2021/11/04 11:20:48;;;;;;;3.47;1.17;;;14.90;99.90;;;;;;5050189;28;20702;-86
2021/11/04 11:23:16;;;;;;;6.93;1.40;;;15.10;99.90;;;;;;5044628;28;20228;-86
2021/11/04 11:25:44;;;;;;;5.10;1.33;;;15.10;99.90;;;;;;5048665;28;20297;-83
2021/11/04 11:28:12;;;;;;;3.07;1.17;;;15.90;99.90;;;;;;5044353;28;20291;-87
2021/11/04 11:30:39;;;;;;;3.77;1.10;;;16.20;99.90;;;;;;5049216;28;20254;-85
2021/11/04 11:33:25;;;;;;;3.70;1.07;;;16.00;99.90;;;;;;5049400;28;20612;-85
2021/11/04 11:36:12;;;;;;;4.13;1.37;;;15.70;99.90;;;;;;5053119;28;20654;-84
2021/11/04 11:39:19;;;;;;;3.77;1.00;;;14.20;99.90;;;;;;5053599;28;20269;-85
2021/11/04 11:42:09;;;;;;;1.63;0.90;;;13.30;99.90;;;;;;5044814;28;20760;-84
2021/11/04 11:44:41;;;;;;;2.53;1.30;;;12.70;99.90;;;;;;5051824;28;20207;-84
2021/11/04 11:47:10;;;;;;;2.83;1.03;;;13.90;99.90;;;;;;5053016;28;20218;-85
2021/11/04 11:49:39;;;;;;;2.63;1.00;;;15.20;99.90;;;;;;5053088;28;20718;-85
2021/11/04 11:52:09;;;;;;;2.60;0.90;;;15.50;99.90;;;;;;5052473;28;20195;-86
2021/11/04 11:55:04;;;;;;;3.07;1.10;;;15.60;99.90;;;;;;5052152;28;20203;-84
2021/11/04 11:57:31;;;;;;;2.47;1.00;;;15.30;99.90;;;;;;5048545;28;20273;-86
2021/11/04 12:00:00;;;;;;;3.07;1.20;;;15.70;99.90;;;;;;5051234;28;20200;-84
2021/11/04 12:02:41;;;;;;;2.63;1.17;;;14.40;99.90;;;;;;5052254;28;20206;-84
2021/11/04 12:05:39;;;;;;;3.40;1.00;;;13.50;99.90;;;;;;5051104;28;20231;-83
2021/11/04 12:08:35;;;;;;;2.00;1.00;;;14.00;99.90;;;;;;5050857;28;20202;-84
2021/11/04 12:11:04;;;;;;;2.47;0.90;;;15.10;99.90;;;;;;5048604;28;20251;-83
2021/11/04 12:13:36;;;;;;;3.67;0.90;;;15.50;99.90;;;;;;5047092;28;20192;-83
2021/11/04 12:16:12;;;;;;;2.23;0.90;;;15.50;99.90;;;;;;5048060;28;20203;-82
2021/11/04 12:18:49;;;;;;;2.87;1.10;;;14.50;99.90;;;;;;5047988;28;20211;-82
2021/11/04 12:21:20;;;;;;;2.50;0.90;;;13.50;99.90;;;;;;5051160;28;20294;-82
2021/11/04 12:23:47;;;;;;;1.53;0.77;;;12.80;99.90;;;;;;5052163;28;20851;-82
2021/11/04 12:26:15;;;;;;;2.80;0.80;;;14.10;99.90;;;;;;5050516;28;20280;-82
2021/11/04 12:28:47;;;;;;;1.90;0.60;;;14.90;99.90;;;;;;5047847;28;20203;-83
2021/11/04 12:31:17;;;;;;;1.67;0.80;;;14.80;99.90;;;;;;5051075;28;20297;-83
2021/11/04 12:33:44;;;;;;;2.70;0.80;;;14.30;99.90;;;;;;5051940;28;20227;-83
2021/11/04 12:36:11;;;;;;;4.37;1.00;;;13.50;99.90;;;;;;5049979;28;20326;-82
2021/11/04 12:38:40;;;;;;;1.70;0.70;;;13.60;99.90;;;;;;5051266;28;20196;-82
2021/11/04 12:41:09;;;;;;;1.53;0.57;;;14.60;99.90;;;;;;5051500;28;20720;-83
2021/11/04 12:43:37;;;;;;;2.40;0.73;;;14.70;99.90;;;;;;5051420;28;20283;-82
2021/11/04 12:46:14;;;;;;;4.07;0.97;;;13.70;99.90;;;;;;5049395;28;20244;-83
2021/11/04 12:48:49;;;;;;;3.10;1.03;;;13.30;99.90;;;;;;5050750;28;20282;-83
2021/11/04 12:51:16;;;;;;;2.30;0.90;;;12.70;99.90;;;;;;5051567;28;20243;-83
2021/11/04 12:53:54;;;;;;;1.40;0.80;;;12.70;99.90;;;;;;5049184;28;20196;-82
2021/11/04 12:56:22;;;;;;;3.70;1.13;;;13.50;99.90;;;;;;5049988;28;20284;-83
2021/11/04 12:58:55;;;;;;;3.90;0.97;;;14.40;99.90;;;;;;5049170;28;20287;-82
2021/11/04 13:01:22;;;;;;;3.80;1.03;;;15.40;99.90;;;;;;5051776;28;20196;-82
2021/11/04 13:03:51;;;;;;;1.90;0.90;;;15.60;99.90;;;;;;5050416;28;20239;-83
2021/11/04 13:06:20;;;;;;;5.93;0.90;;;15.60;99.90;;;;;;5047389;28;20615;-82
2021/11/04 13:08:47;;;;;;;1.73;0.53;;;15.10;99.90;;;;;;5050472;28;20263;-83
2021/11/04 13:11:16;;;;;;;4.27;0.80;;;15.10;99.90;;;;;;5048218;28;20318;-82
2021/11/04 13:13:49;;;;;;;3.00;0.90;;;15.50;99.90;;;;;;5049072;28;20208;-82
2021/11/04 13:16:24;;;;;;;5.53;0.90;;;15.50;99.90;;;;;;5044459;28;20283;-83
2021/11/04 13:18:53;;;;;;;3.40;1.00;;;15.30;99.90;;;;;;5051078;28;20563;-83
2021/11/04 13:21:22;;;;;;;4.10;1.10;;;16.10;99.90;;;;;;5050625;28;20203;-82
2021/11/04 13:23:49;;;;;;;4.40;0.90;;;16.30;99.90;;;;;;5046534;28;20290;-83
2021/11/04 13:26:19;;;;;;;4.30;0.80;;;16.50;99.90;;;;;;5051352;28;20198;-83
2021/11/04 13:28:46;;;;;;;2.53;1.03;;;15.30;99.90;;;;;;5050157;28;20227;-83
2021/11/04 13:31:15;;;;;;;5.67;0.90;;;13.60;99.90;;;;;;5049697;28;20298;-82
2021/11/04 13:33:44;;;;;;;3.00;0.90;;;12.80;99.90;;;;;;5050580;28;20291;-82
2021/11/04 13:36:13;;;;;;;2.37;0.80;;;12.30;99.90;;;;;;5050637;28;20277;-82
2021/11/04 13:38:54;;;;;;;1.93;0.87;;;11.90;99.90;;;;;;5049422;28;20207;-83
2021/11/04 13:41:28;;;;;;;3.07;1.07;;;12.10;99.90;;;;;;5048169;28;20195;-82
2021/11/04 13:43:57;;;;;;;2.03;0.70;;;13.20;99.90;;;;;;5048607;28;20274;-82
2021/11/04 13:46:25;;;;;;;2.97;0.60;;;14.10;99.90;;;;;;5049465;28;20202;-83
2021/11/04 13:48:54;;;;;;;3.57;0.73;;;14.60;99.90;;;;;;5048511;28;20254;-82
2021/11/04 13:51:34;;;;;;;2.23;0.67;;;14.70;99.90;;;;;;5050048;28;20247;-82
2021/11/04 13:54:14;;;;;;;2.40;0.80;;;14.80;99.90;;;;;;5050641;28;20204;-82
2021/11/04 13:56:43;;;;;;;2.40;0.70;;;14.70;99.90;;;;;;5051320;28;20230;-91
2021/11/04 13:59:12;;;;;;;4.27;0.70;;;15.10;99.90;;;;;;5054264;28;20566;-91
2021/11/04 14:01:51;;;;;;;2.87;0.73;;;16.10;99.90;;;;;;5053301;28;20207;-90
2021/11/04 14:04:18;;;;;;;2.67;0.83;;;15.30;99.90;;;;;;5050356;28;20231;-88
2021/11/04 14:06:48;;;;;;;2.20;0.90;;;14.40;99.90;;;;;;5048431;28;20270;-90
2021/11/04 14:09:26;;;;;;;2.73;0.60;;;14.00;99.90;;;;;;5052421;28;20687;-91
2021/11/04 14:12:05;;;;;;;8.40;1.20;;;14.20;99.90;;;;;;5050744;28;20196;-90
2021/11/04 14:14:41;;;;;;;2.67;0.80;;;14.00;99.90;;;;;;5050176;28;20340;-90